Impacts METAR Board
IDs:

KDTW - Detroit Metro/Wayne, MI, US

Updated at: 1800 UTC 22 Sep 2018
Potential Impact None Slight Moderate High
Time 22/06Z 22/07Z 22/08Z 22/09Z 22/10Z 22/11Z 22/12Z 22/13Z 22/14Z 22/15Z 22/16Z 22/17Z 22/18Z
Temp58 56 55 55 55 55 54 54 56 58 60 60 61
Dewpt44 45 42 42 42 42 41 41 42 43 44 44 45
Altim30.19 30.21 30.23 30.26 30.27 30.28 30.30 30.32 30.33 30.34 30.33 30.32 30.32
VIS10 10 10 10 10 10 10 10 10 10 10 10 10
CIG-- -- -- 30 32 30 180 230 230 230 230 32 36
CoverSCTSCTSCTBKNOVCOVCBKNBKNBKNBKNBKNBKNOVC
FltCatVFRVFRVFRMVFRVFRMVFRVFRVFRVFRVFRVFRVFRVFR
WX--------------------------
WDir3403503603503501036036036010405030
WSpd14 9 8 6 6 9 7 7 11 7 9 7 7
WGst17 -- -- -- -- -- -- -- 16 -- -- -- --
Raw hourly METARs
KDTW 220553Z 34014G17KT 10SM FEW035 SCT180 14/07 A3019 RMK AO2 SLP221 T01440067 10222 20144 51027
KDTW 220653Z 35009KT 10SM FEW035 SCT180 13/07 A3021 RMK AO2 SLP227 T01330072
KDTW 220753Z 36008KT 10SM SCT035 SCT180 13/06 A3023 RMK AO2 SLP235 T01280056
KDTW 220853Z 35006KT 10SM BKN030 13/06 A3026 RMK AO2 SLP243 T01280056 53022
KDTW 220953Z 35006KT 10SM OVC032 13/06 A3027 RMK AO2 SLP249 T01280056
KDTW 221053Z 01009KT 10SM OVC030 13/06 A3028 RMK AO2 SLP253 T01280056
KDTW 221203Z 36007KT 10SM SCT028 BKN180 12/05 A3030 RMK AO2 T01220050
KDTW 221253Z 36007KT 10SM FEW028 FEW180 BKN230 12/05 A3032 RMK AO2 SLP266 T01220050
KDTW 221353Z 36011G16KT 10SM FEW030 FEW180 BKN230 13/06 A3033 RMK AO2 SLP269 T01330056
KDTW 221453Z 01007KT 10SM FEW035 FEW180 BKN230 14/06 A3034 RMK AO2 SLP273 T01440061 51015
KDTW 221553Z 04009KT 10SM SCT032 BKN230 16/07 A3033 RMK AO2 SLP271 T01560067
KDTW 221653Z 05007KT 10SM BKN032 BKN210 16/07 A3032 RMK AO2 SLP267 T01560067
KDTW 221753Z 03007KT 10SM OVC036 16/07 A3032 RMK AO2 SLP266 T01610072 10161 20122 56007



Page loaded:  18:25 UTC  |   11:25 AM Pacific  |   12:25 PM Mountain  |   01:25 PM Central  |   02:25 PM Eastern

 

ADVISORIES

FORECASTS

FORECASTS

OBSERVATIONS

USER TOOLS

ABOUT US